Terminal Aerodrome Forecast
Issued by NWS

Home | Current Version | Previous Version | Graphics & Text | Print | Product List | Glossary On
Versions: 1 2 3 4 5 6 7 8 9 10 11 12 13 14 15 16 17 18 19 20 21
000
FTUS43 KGRB 160520
TAFCWA
TAF
KCWA 160520Z 1606/1706 31011G21KT P6SM OVC015
     FM161000 33009G15KT P6SM BKN015
     FM161500 36006KT P6SM BKN015
     FM161700 01005KT P6SM SCT020 SCT200
     FM161900 VRB03KT P6SM SCT100 BKN150
     FM170100 13006KT P6SM SCT070 BKN100
      AMD LTD TO CLD VIS AND WIND TIL 161200Z=

USA.gov is the U.S. government's official web portal to all federal, state and local government web resources and services.